createdAt,value
2023-04-19T00:02:09.085Z,74.76
2023-04-19T00:04:38.361Z,74.88
2023-04-19T00:07:06.559Z,74.84
2023-04-19T00:09:34.248Z,74.90
2023-04-19T00:12:03.334Z,75.07
2023-04-19T00:14:31.078Z,75.16
2023-04-19T00:16:58.821Z,74.76
2023-04-19T00:19:26.729Z,74.87
2023-04-19T00:21:54.466Z,74.95
2023-04-19T00:24:22.080Z,74.47
2023-04-19T00:26:49.790Z,74.75
2023-04-19T00:29:19.044Z,75.06
2023-04-19T00:31:46.766Z,75.29
2023-04-19T00:34:20.577Z,74.96
2023-04-19T00:36:48.322Z,75.06
2023-04-19T00:39:16.398Z,75.05
2023-04-19T00:41:44.930Z,75.30
2023-04-19T00:44:12.785Z,75.33
2023-04-19T00:46:42.949Z,75.29
2023-04-19T00:49:10.903Z,75.34
2023-04-19T00:51:39.439Z,75.30
2023-04-19T00:54:08.294Z,75.34
2023-04-19T00:56:36.531Z,75.22
2023-04-19T00:59:04.227Z,75.19
2023-04-19T01:01:31.939Z,75.60
2023-04-19T01:04:01.934Z,75.12
2023-04-19T01:06:31.821Z,75.42
2023-04-19T01:08:59.783Z,75.45
2023-04-19T01:11:28.902Z,75.43
2023-04-19T01:13:58.274Z,75.47
2023-04-19T01:16:27.804Z,75.49
2023-04-19T01:18:56.275Z,75.57
2023-04-19T01:21:25.671Z,75.69
2023-04-19T01:23:54.756Z,76.03
2023-04-19T01:26:22.578Z,76.11
2023-04-19T01:28:50.446Z,76.16
2023-04-19T01:31:19.935Z,76.07
2023-04-19T01:33:47.734Z,76.19
2023-04-19T01:36:15.445Z,76.27
2023-04-19T01:38:43.183Z,75.99
2023-04-19T01:41:12.558Z,76.38
2023-04-19T01:43:40.158Z,76.33
2023-04-19T01:46:07.892Z,76.17
2023-04-19T01:48:35.594Z,75.98
2023-04-19T01:51:03.321Z,75.83
2023-04-19T01:53:31.060Z,76.11
2023-04-19T01:55:58.807Z,76.05
2023-04-19T01:58:27.767Z,75.72
2023-04-19T02:00:55.541Z,75.92
2023-04-19T02:03:23.389Z,75.98
2023-04-19T02:05:51.206Z,76.17
2023-04-19T02:08:18.884Z,76.16
2023-04-19T02:10:46.625Z,76.08
2023-04-19T02:13:14.334Z,76.09
2023-04-19T02:15:43.556Z,75.87
2023-04-19T02:18:11.828Z,76.16
2023-04-19T02:20:39.552Z,76.26
2023-04-19T02:23:07.351Z,77.01
2023-04-19T02:25:34.986Z,76.56
2023-04-19T02:28:02.654Z,76.98
2023-04-19T02:30:30.458Z,76.72
2023-04-19T02:32:59.704Z,76.69
2023-04-19T02:35:27.432Z,76.91
2023-04-19T02:37:55.232Z,76.97
2023-04-19T02:40:23.799Z,77.04
2023-04-19T02:42:51.613Z,77.03
2023-04-19T02:45:19.276Z,77.11
2023-04-19T02:47:47.190Z,77.29
2023-04-19T02:50:17.917Z,77.11
2023-04-19T02:52:45.700Z,76.66
2023-04-19T02:55:13.567Z,76.60
2023-04-19T02:57:41.330Z,76.55
2023-04-19T03:00:10.451Z,77.01
2023-04-19T03:02:39.441Z,76.98
2023-04-19T03:05:07.846Z,76.98
2023-04-19T03:07:37.041Z,77.17
2023-04-19T03:10:05.317Z,77.39
2023-04-19T03:12:33.058Z,77.62
2023-04-19T03:15:00.716Z,77.24
2023-04-19T03:17:28.536Z,77.75
2023-04-19T03:19:56.561Z,77.67
2023-04-19T03:22:24.281Z,77.72
2023-04-19T03:24:53.303Z,77.73
2023-04-19T03:27:20.949Z,77.47
2023-04-19T03:29:49.081Z,77.98
2023-04-19T03:32:16.789Z,78.04
2023-04-19T03:34:44.432Z,77.97
2023-04-19T03:37:12.126Z,77.77
2023-04-19T03:39:39.812Z,77.87
2023-04-19T03:42:08.938Z,78.14
2023-04-19T03:44:36.769Z,78.45
2023-04-19T03:47:04.447Z,78.62
2023-04-19T03:49:32.131Z,78.91
2023-04-19T03:51:59.904Z,78.76
2023-04-19T03:54:27.548Z,79.07
2023-04-19T03:56:55.379Z,79.51
2023-04-19T03:59:24.390Z,79.35
2023-04-19T04:01:52.125Z,79.00
2023-04-19T04:04:20.082Z,79.90
2023-04-19T04:06:48.039Z,80.07
2023-04-19T04:09:15.786Z,80.11
2023-04-19T04:11:43.435Z,79.76
2023-04-19T04:14:11.130Z,79.76
2023-04-19T04:16:40.167Z,80.05
2023-04-19T04:19:08.249Z,80.24
2023-04-19T04:21:35.964Z,80.75
2023-04-19T04:24:03.901Z,81.04
2023-04-19T04:26:34.006Z,81.43
2023-04-19T04:29:02.076Z,81.41
2023-04-19T04:31:30.023Z,81.85
2023-04-19T04:33:59.194Z,82.04
2023-04-19T04:36:29.872Z,81.89
2023-04-19T04:38:58.234Z,82.02
2023-04-19T04:41:25.874Z,82.15
2023-04-19T04:44:08.346Z,82.16
2023-04-19T04:46:39.747Z,82.18
2023-04-19T04:49:08.927Z,82.47
2023-04-19T04:51:37.497Z,82.31
2023-04-19T04:54:05.654Z,82.41
2023-04-19T04:56:33.621Z,82.46
2023-04-19T04:59:01.302Z,82.31
2023-04-19T05:01:29.176Z,82.53
2023-04-19T05:03:56.961Z,82.43
2023-04-19T05:06:26.673Z,82.46
2023-04-19T05:08:54.483Z,82.88
2023-04-19T05:11:22.575Z,82.74
2023-04-19T05:13:50.372Z,82.64
2023-04-19T05:16:18.233Z,82.60
2023-04-19T05:18:46.090Z,83.10
2023-04-19T05:21:13.864Z,83.15
2023-04-19T05:23:42.908Z,83.46
2023-04-19T05:26:12.616Z,83.57
2023-04-19T05:28:41.169Z,83.29
2023-04-19T05:31:09.806Z,83.59
2023-04-19T05:33:37.589Z,83.24
2023-04-19T05:36:05.900Z,83.74
2023-04-19T05:38:33.669Z,83.37
2023-04-19T05:41:03.168Z,83.31
2023-04-19T05:43:31.067Z,83.43
2023-04-19T05:45:59.016Z,82.85
2023-04-19T05:48:26.787Z,82.89
2023-04-19T05:50:56.691Z,82.19
2023-04-19T05:53:24.828Z,82.15
2023-04-19T05:55:53.068Z,82.29
2023-04-19T05:58:23.417Z,82.32
2023-04-19T06:00:52.830Z,81.70
2023-04-19T06:03:21.305Z,82.27
2023-04-19T06:05:49.487Z,82.21
2023-04-19T06:08:17.624Z,81.47
2023-04-19T06:10:54.694Z,81.83
2023-04-19T06:13:25.984Z,81.54
2023-04-19T06:15:53.797Z,82.15
2023-04-19T06:18:21.426Z,82.35
2023-04-19T06:20:49.189Z,81.75
2023-04-19T06:23:18.484Z,80.93
2023-04-19T06:25:48.562Z,79.98
2023-04-19T06:28:16.703Z,80.41
2023-04-19T06:30:45.899Z,80.49
2023-04-19T06:33:13.639Z,80.23
2023-04-19T06:35:41.356Z,79.65
2023-04-19T06:38:09.014Z,79.91
2023-04-19T06:40:36.821Z,79.72
2023-04-19T06:43:05.777Z,79.77
2023-04-19T06:45:33.857Z,79.37
2023-04-19T06:48:02.994Z,79.30
2023-04-19T06:50:30.814Z,79.29
2023-04-19T06:52:58.680Z,79.11
2023-04-19T06:55:26.375Z,78.98
2023-04-19T06:57:54.107Z,78.82
2023-04-19T07:00:22.328Z,78.36
2023-04-19T07:02:50.793Z,78.05
2023-04-19T07:05:20.274Z,77.86
2023-04-19T07:07:47.886Z,77.21
2023-04-19T07:10:15.638Z,77.77
2023-04-19T07:12:43.444Z,78.24
2023-04-19T07:15:12.819Z,77.68
2023-04-19T07:17:40.580Z,77.56
2023-04-19T07:20:09.996Z,78.32
2023-04-19T07:22:39.152Z,78.63
2023-04-19T07:25:07.497Z,77.95
2023-04-19T07:27:35.278Z,77.73
2023-04-19T07:30:03.020Z,77.52
2023-04-19T07:32:31.874Z,77.90
2023-04-19T07:34:59.599Z,77.98
2023-04-19T07:37:27.959Z,78.44
2023-04-19T07:39:57.023Z,78.71
2023-04-19T07:42:26.332Z,79.18
2023-04-19T07:44:54.152Z,79.03
2023-04-19T07:47:22.082Z,79.21
2023-04-19T07:49:53.216Z,79.10
2023-04-19T07:52:20.905Z,78.56
2023-04-19T07:54:48.587Z,77.70
2023-04-19T07:57:17.806Z,77.52
2023-04-19T07:59:45.549Z,77.75
2023-04-19T08:02:13.314Z,77.89
2023-04-19T08:04:41.230Z,77.92
2023-04-19T08:07:09.621Z,77.67
2023-04-19T08:09:37.898Z,77.39
2023-04-19T08:12:05.676Z,77.51
2023-04-19T08:14:43.455Z,77.53
2023-04-19T08:17:26.794Z,76.71
2023-04-19T08:19:55.954Z,76.98
2023-04-19T08:22:23.681Z,76.43
2023-04-19T08:24:52.383Z,76.60
2023-04-19T08:27:21.045Z,76.21
2023-04-19T08:29:50.170Z,75.72
2023-04-19T08:32:17.877Z,75.70
2023-04-19T08:34:46.340Z,75.47
2023-04-19T08:37:14.086Z,75.79
2023-04-19T08:39:41.723Z,75.31
2023-04-19T08:42:24.668Z,75.71
2023-04-19T08:45:26.204Z,75.86
2023-04-19T08:48:00.511Z,75.60
2023-04-19T08:50:34.657Z,75.22
2023-04-19T08:55:50.983Z,75.57
2023-04-19T08:58:46.524Z,75.47
2023-04-19T09:04:02.600Z,74.91
2023-04-19T09:06:38.875Z,74.93
2023-04-19T09:09:33.114Z,75.28
2023-04-19T09:12:01.876Z,74.77
2023-04-19T09:14:31.288Z,74.62
2023-04-19T09:17:18.455Z,74.34
2023-04-19T09:19:50.581Z,74.17
2023-04-19T09:22:18.842Z,74.38
2023-04-19T09:25:22.686Z,74.12
2023-04-19T09:27:37.860Z,73.41
2023-04-19T09:30:09.308Z,73.68
2023-04-19T09:32:49.598Z,72.86
2023-04-19T09:35:17.917Z,72.37
2023-04-19T09:38:06.038Z,72.43
2023-04-19T09:40:34.740Z,72.47
2023-04-19T09:43:17.838Z,72.66
2023-04-19T09:45:51.307Z,71.93
2023-04-19T09:48:20.450Z,71.09
2023-04-19T09:51:01.818Z,71.14
2023-04-19T09:53:34.603Z,69.75
2023-04-19T09:56:04.162Z,69.44
2023-04-19T10:01:14.379Z,68.62
2023-04-19T10:03:46.513Z,68.62
2023-04-19T10:06:40.183Z,68.66
2023-04-19T10:09:06.272Z,68.97
2023-04-19T10:11:40.073Z,68.92
2023-04-19T10:14:10.336Z,69.50
2023-04-19T10:16:39.804Z,70.01
2023-04-19T10:19:11.532Z,69.98
2023-04-19T10:21:40.675Z,69.92
2023-04-19T10:24:09.562Z,69.47
2023-04-19T10:27:10.963Z,69.35
2023-04-19T10:30:03.895Z,68.49
2023-04-19T10:32:39.998Z,68.66
2023-04-19T10:35:19.247Z,67.54
2023-04-19T10:38:06.251Z,67.42
2023-04-19T10:41:00.740Z,66.33
2023-04-19T10:43:30.484Z,65.16
2023-04-19T10:46:02.068Z,65.00
2023-04-19T10:48:35.103Z,64.31
2023-04-19T10:51:07.288Z,63.27
2023-04-19T10:53:48.886Z,62.63
2023-04-19T10:56:18.986Z,62.57
2023-04-19T10:59:26.725Z,62.28
2023-04-19T11:01:57.180Z,62.81
2023-04-19T11:04:41.481Z,62.72
2023-04-19T11:07:10.860Z,61.50
2023-04-19T11:09:41.919Z,61.31
2023-04-19T11:12:12.612Z,61.09
2023-04-19T11:14:41.986Z,60.57
2023-04-19T11:17:16.741Z,60.50
2023-04-19T11:19:45.955Z,59.26
2023-04-19T11:22:15.028Z,59.37
2023-04-19T11:24:48.082Z,59.03
2023-04-19T11:27:15.896Z,57.49
2023-04-19T11:29:43.732Z,56.66
2023-04-19T11:32:11.444Z,56.32
2023-04-19T11:34:39.780Z,56.01
2023-04-19T11:37:07.609Z,54.89
2023-04-19T11:39:46.352Z,56.20
2023-04-19T11:42:19.528Z,54.76
2023-04-19T11:44:51.929Z,54.34
2023-04-19T11:47:20.104Z,54.27
2023-04-19T11:50:20.989Z,55.01
2023-04-19T11:52:39.205Z,54.65
2023-04-19T11:55:21.096Z,54.05
2023-04-19T11:57:49.321Z,54.32
2023-04-19T12:00:27.791Z,54.30
2023-04-19T12:02:56.171Z,54.26
2023-04-19T12:05:25.072Z,52.72
2023-04-19T12:08:04.002Z,49.87
2023-04-19T12:10:33.705Z,47.82
2023-04-19T12:13:01.594Z,48.03
2023-04-19T12:15:43.199Z,46.97
2023-04-19T12:18:11.333Z,46.15
2023-04-19T12:20:44.746Z,45.28
2023-04-19T12:23:14.069Z,44.92
2023-04-19T12:25:44.528Z,44.31
2023-04-19T12:28:12.435Z,42.89
2023-04-19T12:30:41.227Z,40.94
2023-04-19T12:33:10.268Z,40.62
2023-04-19T12:35:39.206Z,41.11
2023-04-19T12:38:07.348Z,39.71
2023-04-19T12:40:35.521Z,38.81
2023-04-19T12:43:04.901Z,40.23
2023-04-19T12:45:34.517Z,40.08
2023-04-19T12:48:02.899Z,39.27
2023-04-19T12:50:30.692Z,38.96
2023-04-19T12:52:58.424Z,38.58
2023-04-19T12:55:26.373Z,39.86
2023-04-19T12:57:54.253Z,38.79
2023-04-19T13:00:23.440Z,40.13
2023-04-19T13:02:51.295Z,39.67
2023-04-19T13:05:19.212Z,38.55
2023-04-19T13:07:46.995Z,37.53
2023-04-19T13:10:14.783Z,37.72
2023-04-19T13:12:42.642Z,38.31
2023-04-19T13:15:11.552Z,38.14
2023-04-19T13:17:40.748Z,37.55
2023-04-19T13:20:09.883Z,37.23
2023-04-19T13:22:37.562Z,36.65
2023-04-19T13:25:06.184Z,36.87
2023-04-19T13:27:33.852Z,36.33
2023-04-19T13:30:01.791Z,36.04
2023-04-19T13:32:30.242Z,35.39
2023-04-19T13:34:59.420Z,35.82
2023-04-19T13:37:27.123Z,35.04
2023-04-19T13:40:03.914Z,34.80
2023-04-19T13:42:38.980Z,33.55
2023-04-19T13:45:07.811Z,33.08
2023-04-19T13:47:35.601Z,33.45
2023-04-19T13:50:05.155Z,34.18
2023-04-19T13:52:33.388Z,33.52
2023-04-19T13:55:01.124Z,33.38
2023-04-19T13:57:28.958Z,32.79
2023-04-19T13:59:56.768Z,32.52
2023-04-19T14:02:24.810Z,31.20
2023-04-19T14:04:52.771Z,31.01
2023-04-19T14:07:21.829Z,30.64
2023-04-19T14:09:49.634Z,30.71
2023-04-19T14:12:17.350Z,29.58
2023-04-19T14:14:45.047Z,28.95
2023-04-19T14:17:12.812Z,28.63
2023-04-19T14:19:40.564Z,28.39
2023-04-19T14:22:08.280Z,28.18
2023-04-19T14:24:37.412Z,28.61
2023-04-19T14:27:11.001Z,27.84
2023-04-19T14:29:39.441Z,27.50
2023-04-19T14:32:21.320Z,27.34
2023-04-19T14:34:54.415Z,27.53
2023-04-19T14:37:23.312Z,27.31
2023-04-19T14:39:52.642Z,26.75
2023-04-19T14:42:22.618Z,27.23
2023-04-19T14:44:52.105Z,27.13
2023-04-19T14:47:20.431Z,26.59
2023-04-19T14:49:48.506Z,26.28
2023-04-19T14:52:16.913Z,26.63
2023-04-19T14:54:44.680Z,26.32
2023-04-19T14:57:13.975Z,26.14
2023-04-19T14:59:41.731Z,25.40
2023-04-19T15:02:10.573Z,26.03
2023-04-19T15:04:41.115Z,26.02
2023-04-19T15:07:09.414Z,26.57
2023-04-19T15:09:37.121Z,26.35
2023-04-19T15:12:05.893Z,26.43
2023-04-19T15:14:35.190Z,26.66
2023-04-19T15:17:03.437Z,27.03
2023-04-19T15:19:31.847Z,26.85
2023-04-19T15:21:59.564Z,26.57
2023-04-19T15:24:27.336Z,26.90
2023-04-19T15:26:55.039Z,26.48
2023-04-19T15:29:22.718Z,26.73
2023-04-19T15:31:51.891Z,26.05
2023-04-19T15:34:19.810Z,26.49
2023-04-19T15:36:47.525Z,25.89
2023-04-19T15:39:15.501Z,26.26
2023-04-19T15:41:43.565Z,26.18
2023-04-19T15:44:11.234Z,26.37
2023-04-19T15:46:39.035Z,26.26
2023-04-19T15:49:08.154Z,25.88
2023-04-19T15:51:35.922Z,26.22
2023-04-19T15:54:03.833Z,25.79
2023-04-19T15:56:31.589Z,26.31
2023-04-19T15:58:59.342Z,26.39
2023-04-19T16:01:27.143Z,26.64
2023-04-19T16:03:55.023Z,27.24
2023-04-19T16:06:24.277Z,27.67
2023-04-19T16:08:52.035Z,28.11
2023-04-19T16:11:19.844Z,28.23
2023-04-19T16:13:48.443Z,27.53
2023-04-19T16:16:16.468Z,27.26
2023-04-19T16:18:44.176Z,27.58
2023-04-19T16:21:11.926Z,27.25
2023-04-19T16:23:41.049Z,27.22
2023-04-19T16:26:08.814Z,27.44
2023-04-19T16:28:36.682Z,27.32
2023-04-19T16:31:04.438Z,27.35
2023-04-19T16:33:32.169Z,27.99
2023-04-19T16:35:59.912Z,27.68
2023-04-19T16:38:27.555Z,28.01
2023-04-19T16:40:56.706Z,28.50
2023-04-19T16:43:24.520Z,28.50
2023-04-19T16:45:52.230Z,28.05
2023-04-19T16:48:20.034Z,28.07
2023-04-19T16:50:47.744Z,28.90
2023-04-19T16:53:15.816Z,28.75
2023-04-19T16:55:43.608Z,28.73
2023-04-19T16:58:12.735Z,28.79
2023-04-19T17:00:41.058Z,29.19
2023-04-19T17:03:09.632Z,29.55
2023-04-19T17:05:37.664Z,29.50
2023-04-19T17:08:05.923Z,28.86
2023-04-19T17:10:33.615Z,29.51
2023-04-19T17:13:01.388Z,29.91
2023-04-19T17:15:31.540Z,29.92
2023-04-19T17:17:59.424Z,30.24
2023-04-19T17:20:27.278Z,30.59
2023-04-19T17:22:54.939Z,30.97
2023-04-19T17:25:24.183Z,31.09
2023-04-19T17:27:51.977Z,31.27
2023-04-19T17:30:19.812Z,31.50
2023-04-19T17:32:48.993Z,31.70
2023-04-19T17:35:16.963Z,31.74
2023-04-19T17:37:44.735Z,32.10
2023-04-19T17:40:13.367Z,31.78
2023-04-19T17:42:41.162Z,31.87
2023-04-19T17:45:11.122Z,32.13
2023-04-19T17:47:39.546Z,32.09
2023-04-19T17:50:11.291Z,32.32
2023-04-19T17:52:39.360Z,33.07
2023-04-19T17:55:07.992Z,33.58
2023-04-19T17:57:35.756Z,33.59
2023-04-19T18:00:06.133Z,34.24
2023-04-19T18:02:34.224Z,33.85
2023-04-19T18:05:02.333Z,34.20
2023-04-19T18:07:31.827Z,34.35
2023-04-19T18:09:59.554Z,34.27
2023-04-19T18:12:27.593Z,34.76
2023-04-19T18:14:55.363Z,35.17
2023-04-19T18:17:23.170Z,34.89
2023-04-19T18:19:51.857Z,34.82
2023-04-19T18:22:19.647Z,35.19
2023-04-19T18:24:51.203Z,35.44
2023-04-19T18:27:18.956Z,35.41
2023-04-19T18:29:51.037Z,35.25
2023-04-19T18:32:18.921Z,35.00
2023-04-19T18:34:47.382Z,35.42
2023-04-19T18:37:16.494Z,35.82
2023-04-19T18:39:44.299Z,36.05
2023-04-19T18:42:13.435Z,36.10
2023-04-19T18:44:52.023Z,35.81
2023-04-19T18:47:20.628Z,36.71
2023-04-19T18:50:02.784Z,37.00
2023-04-19T18:52:32.861Z,37.28
2023-04-19T18:55:00.761Z,37.15
2023-04-19T18:57:34.165Z,37.49
2023-04-19T19:00:06.500Z,37.53
2023-04-19T19:02:36.062Z,37.65
2023-04-19T19:07:36.835Z,38.33
2023-04-19T19:10:18.272Z,38.00
2023-04-19T19:12:50.306Z,38.38
2023-04-19T19:15:18.851Z,38.31
2023-04-19T19:17:49.816Z,38.54
2023-04-19T19:20:19.214Z,38.66
2023-04-19T19:22:46.932Z,38.35
2023-04-19T19:25:14.767Z,38.65
2023-04-19T19:27:58.220Z,39.14
2023-04-19T19:30:33.835Z,39.61
2023-04-19T19:33:04.676Z,40.10
2023-04-19T19:35:32.773Z,40.37
2023-04-19T19:38:00.776Z,41.06
2023-04-19T19:40:32.357Z,41.08
2023-04-19T19:43:01.362Z,41.11
2023-04-19T19:45:29.477Z,41.14
2023-04-19T19:48:00.407Z,41.27
2023-04-19T19:53:00.970Z,41.89
2023-04-19T19:55:29.970Z,42.29
2023-04-19T20:03:01.386Z,43.49
2023-04-19T20:05:29.904Z,44.10
2023-04-19T20:08:08.210Z,44.27
2023-04-19T20:10:36.633Z,43.95
2023-04-19T20:13:06.218Z,43.95
2023-04-19T20:15:34.951Z,44.06
2023-04-19T20:18:04.820Z,44.24
2023-04-19T20:20:32.846Z,44.51
2023-04-19T20:23:00.695Z,44.64
2023-04-19T20:25:28.498Z,44.75
2023-04-19T20:27:56.591Z,45.05
2023-04-19T20:30:24.482Z,46.24
2023-04-19T20:32:52.309Z,46.26
2023-04-19T20:35:21.504Z,46.83
2023-04-19T20:37:50.769Z,46.66
2023-04-19T20:40:18.613Z,47.15
2023-04-19T20:42:46.874Z,47.74
2023-04-19T20:45:15.206Z,48.02
2023-04-19T20:47:43.156Z,48.69
2023-04-19T20:50:11.595Z,49.18
2023-04-19T20:52:40.685Z,48.95
2023-04-19T20:55:09.438Z,48.92
2023-04-19T20:57:37.462Z,49.09
2023-04-19T21:00:07.984Z,49.34
2023-04-19T21:02:35.926Z,49.38
2023-04-19T21:05:03.720Z,49.69
2023-04-19T21:07:31.426Z,50.00
2023-04-19T21:10:00.548Z,49.88
2023-04-19T21:12:28.933Z,50.30
2023-04-19T21:14:56.694Z,50.43
2023-04-19T21:17:24.517Z,50.64
2023-04-19T21:19:52.286Z,50.62
2023-04-19T21:22:19.918Z,50.66
2023-04-19T21:24:47.625Z,50.87
2023-04-19T21:27:16.672Z,50.88
2023-04-19T21:29:44.451Z,50.58
2023-04-19T21:32:12.300Z,50.16
2023-04-19T21:34:40.028Z,49.93
2023-04-19T21:37:07.794Z,50.09
2023-04-19T21:39:35.548Z,50.29
2023-04-19T21:42:03.487Z,50.28
2023-04-19T21:44:32.616Z,50.45
2023-04-19T21:47:00.425Z,50.17
2023-04-19T21:49:28.134Z,50.74
2023-04-19T21:51:56.878Z,50.70
2023-04-19T21:54:33.443Z,51.12
2023-04-19T21:57:01.926Z,51.70
2023-04-19T21:59:30.337Z,52.22
2023-04-19T22:01:59.758Z,52.73
2023-04-19T22:04:31.053Z,52.33
2023-04-19T22:07:01.963Z,53.25
2023-04-19T22:09:30.142Z,53.04
2023-04-19T22:11:57.910Z,52.94
2023-04-19T22:14:25.766Z,52.55
2023-04-19T22:16:54.141Z,52.56
2023-04-19T22:19:24.423Z,53.22
2023-04-19T22:21:53.536Z,53.36
2023-04-19T22:24:21.831Z,53.38
2023-04-19T22:26:50.120Z,53.70
2023-04-19T22:29:18.350Z,53.67
2023-04-19T22:31:46.491Z,53.66
2023-04-19T22:34:14.255Z,53.88
2023-04-19T22:36:43.287Z,53.67
2023-04-19T22:39:11.036Z,53.94
2023-04-19T22:41:38.789Z,54.25
2023-04-19T22:44:06.805Z,54.31
2023-04-19T22:46:34.832Z,54.59
2023-04-19T22:49:03.237Z,54.55
2023-04-19T22:51:31.126Z,54.23
2023-04-19T22:54:00.294Z,54.84
2023-04-19T22:56:27.996Z,55.09
2023-04-19T22:58:55.765Z,55.52
2023-04-19T23:01:23.517Z,55.75
2023-04-19T23:03:51.455Z,55.85
2023-04-19T23:06:19.479Z,55.52
2023-04-19T23:08:47.112Z,55.35
2023-04-19T23:11:16.195Z,55.86
2023-04-19T23:13:43.937Z,55.92
2023-04-19T23:16:11.929Z,55.65
2023-04-19T23:18:40.211Z,55.78
2023-04-19T23:21:08.035Z,55.74
2023-04-19T23:23:35.798Z,56.39
2023-04-19T23:26:03.577Z,56.87
2023-04-19T23:28:32.729Z,56.98
2023-04-19T23:31:00.557Z,57.28
2023-04-19T23:33:28.279Z,57.28
2023-04-19T23:35:56.186Z,57.13
2023-04-19T23:38:23.872Z,57.04
2023-04-19T23:40:51.637Z,57.45
2023-04-19T23:43:19.467Z,57.79
2023-04-19T23:45:48.542Z,58.30
2023-04-19T23:48:17.385Z,58.69
2023-04-19T23:50:45.802Z,58.72
2023-04-19T23:53:13.465Z,58.92
2023-04-19T23:55:41.256Z,58.80
2023-04-19T23:58:08.960Z,59.19
